Time;durP1;ratioP1;P1;durP2;ratioP2;P2;SDS_P1;SDS_P2;PMS_P1;PMS_P2;Temp;Humidity;BMP_temperature;BMP_pressure;BME280_temperature;BME280_humidity;BME280_pressure;Samples;Min_cycle;Max_cycle;Signal;HPM_P1;HPM_P2
2022/10/27 00:00:35;;;;;;;;;2.00;2.00;;;;;17.52;68.28;101627.25;5040633;28;45386;-78
2022/10/27 00:03:01;;;;;;;;;1.75;1.75;;;;;17.53;67.63;101628.09;5039858;28;62000;-76
2022/10/27 00:05:26;;;;;;;;;2.00;2.00;;;;;17.54;67.97;101628.03;5057741;28;60374;-76
2022/10/27 00:07:52;;;;;;;;;2.00;2.00;;;;;17.54;67.87;101622.78;5058322;28;46431;-76
2022/10/27 00:10:17;;;;;;;;;3.00;1.50;;;;;17.52;67.79;101639.56;5058054;28;53096;-76
2022/10/27 00:12:43;;;;;;;;;3.50;2.00;;;;;17.50;67.90;101637.00;5040308;28;45418;-76
2022/10/27 00:15:09;;;;;;;;;2.00;2.00;;;;;17.48;67.60;101646.75;5040482;28;45442;-76
2022/10/27 00:17:34;;;;;;;;;1.00;1.00;;;;;17.43;68.18;101648.72;5058161;28;45847;-76
2022/10/27 00:19:59;;;;;;;;;3.00;2.00;;;;;17.39;67.80;101640.09;5056943;28;66834;-76
2022/10/27 00:22:25;;;;;;;;;2.00;2.00;;;;;17.37;68.13;101641.94;5057285;28;69113;-76
2022/10/27 00:24:50;;;;;;;;;3.25;2.00;;;;;17.39;68.01;101642.72;5058132;28;45478;-76
2022/10/27 00:27:15;;;;;;;;;2.50;2.00;;;;;17.37;67.83;101646.34;5057884;28;50926;-76
2022/10/27 00:29:41;;;;;;;;;4.75;1.00;;;;;17.34;68.17;101643.84;5040105;28;45469;-76
2022/10/27 00:32:06;;;;;;;;;2.25;2.00;;;;;17.31;68.05;101638.69;5057687;28;45388;-76
2022/10/27 00:34:31;;;;;;;;;1.00;1.00;;;;;17.29;68.28;101649.31;5056810;28;65985;-76
2022/10/27 00:36:57;;;;;;;;;6.00;2.00;;;;;17.28;68.17;101637.06;5057747;28;47483;-76
2022/10/27 00:39:22;;;;;;;;;1.25;1.25;;;;;17.28;68.00;101634.44;5057236;28;67228;-76
2022/10/27 00:41:47;;;;;;;;;3.50;2.00;;;;;17.28;68.05;101631.81;5039152;28;62220;-77
2022/10/27 00:44:25;;;;;;;;;3.00;2.00;;;;;17.27;67.83;101630.06;5056792;28;67659;-76
2022/10/27 00:46:50;;;;;;;;;2.00;2.00;;;;;17.24;67.88;101635.50;5057709;28;47438;-76
2022/10/27 00:49:18;;;;;;;;;3.00;2.00;;;;;17.25;68.28;101633.72;5056504;28;71856;-76
2022/10/27 00:51:55;;;;;;;;;1.00;1.00;;;;;17.25;68.58;101642.44;5039723;28;45442;-76
2022/10/27 00:54:22;;;;;;;;;3.00;2.00;;;;;17.26;68.21;101631.03;5039829;28;45300;-76
2022/10/27 00:56:49;;;;;;;;;2.00;1.00;;;;;17.26;68.41;101627.53;5022865;28;49013;-76
2022/10/27 00:59:15;;;;;;;;;5.00;2.00;;;;;17.24;68.42;101618.84;5039697;28;45737;-76
2022/10/27 01:01:40;;;;;;;;;2.50;2.00;;;;;17.22;68.24;101622.41;5038667;28;67401;-76
2022/10/27 01:04:07;;;;;;;;;2.00;2.00;;;;;17.20;68.28;101616.34;5057327;28;45328;-76
2022/10/27 01:06:34;;;;;;;;;2.00;2.00;;;;;17.20;68.67;101618.13;5057397;28;47666;-76
2022/10/27 01:08:59;;;;;;;;;3.00;1.00;;;;;17.18;68.58;101618.19;5057492;28;45303;-76
2022/10/27 01:11:25;;;;;;;;;2.75;2.00;;;;;17.14;68.21;101614.00;5039587;28;45430;-76
2022/10/27 01:13:50;;;;;;;;;1.50;1.50;;;;;17.13;68.58;101611.41;5057643;28;45450;-76
2022/10/27 01:16:27;;;;;;;;;2.75;2.00;;;;;17.09;68.36;101610.69;5056445;28;68834;-76
2022/10/27 01:19:14;;;;;;;;;1.00;0.50;;;;;17.08;68.46;101605.50;5056850;28;45756;-77
2022/10/27 01:21:49;;;;;;;;;2.50;1.25;;;;;17.05;68.54;101605.59;5057364;28;45426;-77
2022/10/27 01:24:32;;;;;;;;;2.25;2.00;;;;;17.07;68.22;101606.41;5057260;28;45426;-77
2022/10/27 01:27:07;;;;;;;;;2.00;1.00;;;;;17.05;69.03;101606.50;5057203;28;47195;-77
2022/10/27 01:29:32;;;;;;;;;2.00;2.00;;;;;17.06;68.93;101608.19;5039160;28;45279;-77
2022/10/27 01:32:22;;;;;;;;;3.00;2.00;;;;;17.05;68.51;101601.22;5038812;28;45326;-77
2022/10/27 01:35:06;;;;;;;;;2.00;2.00;;;;;17.05;68.92;101601.22;5056898;28;45428;-76
2022/10/27 01:37:42;;;;;;;;;1.25;1.00;;;;;17.05;68.98;101595.97;5038996;28;46145;-77
2022/10/27 01:40:12;;;;;;;;;3.25;1.00;;;;;17.00;68.92;101590.88;5038907;28;45423;-77
2022/10/27 01:42:48;;;;;;;;;1.75;1.75;;;;;17.00;68.62;101590.03;5057108;28;45340;-77
2022/10/27 01:45:16;;;;;;;;;2.75;1.00;;;;;16.99;69.33;101591.81;5037996;28;45563;-77
2022/10/27 01:47:42;;;;;;;;;3.00;1.00;;;;;16.99;68.64;101590.94;5038515;28;46398;-77
2022/10/27 01:50:08;;;;;;;;;3.75;2.00;;;;;16.97;69.05;101596.25;5038822;28;45426;-77
2022/10/27 01:52:44;;;;;;;;;4.00;1.00;;;;;16.98;69.08;101599.78;5057062;28;45452;-76
2022/10/27 01:55:13;;;;;;;;;4.50;2.00;;;;;16.96;68.82;101597.19;5056904;28;45259;-77
2022/10/27 01:58:03;;;;;;;;;3.00;1.00;;;;;16.95;69.02;101592.00;5056629;28;46439;-77
2022/10/27 02:00:32;;;;;;;;;2.00;2.00;;;;;16.92;69.15;101590.38;5056275;28;45287;-76
2022/10/27 02:03:12;;;;;;;;;4.75;2.50;;;;;16.92;68.85;101589.50;5055537;28;45256;-76
2022/10/27 02:05:48;;;;;;;;;3.00;1.25;;;;;16.92;68.96;101585.09;5038754;28;45424;-77
2022/10/27 02:08:21;;;;;;;;;1.50;1.00;;;;;16.92;69.11;101584.22;5038308;28;47440;-76
2022/10/27 02:10:57;;;;;;;;;3.00;1.00;;;;;16.91;68.79;101583.38;5038419;28;45375;-76
2022/10/27 02:13:23;;;;;;;;;1.00;1.00;;;;;16.88;68.88;101580.88;5038480;28;45498;-76
2022/10/27 02:15:52;;;;;;;;;2.50;1.75;;;;;16.87;69.13;101570.44;5038328;28;45572;-76
2022/10/27 02:18:22;;;;;;;;;2.25;2.25;;;;;16.85;68.75;101569.66;5038348;28;46152;-77
2022/10/27 02:20:50;;;;;;;;;2.00;2.00;;;;;16.83;68.78;101565.31;5038152;28;45789;-76
2022/10/27 02:23:17;;;;;;;;;1.00;1.00;;;;;16.83;69.22;101572.34;5038535;28;45390;-77
2022/10/27 02:26:20;;;;;;;;;2.75;2.00;;;;;16.82;68.84;101568.84;5056271;28;45208;-76
2022/10/27 02:28:58;;;;;;;;;2.00;2.00;;;;;16.82;69.47;101565.31;5056063;28;47460;-76
2022/10/27 02:31:29;;;;;;;;;4.25;1.50;;;;;16.79;68.93;101555.81;5037809;28;45746;-76
2022/10/27 02:33:56;;;;;;;;;2.50;1.00;;;;;16.79;69.05;101558.44;5038072;28;45407;-76
2022/10/27 02:36:21;;;;;;;;;3.00;2.00;;;;;16.78;69.32;101556.72;5021685;28;45546;-77
2022/10/27 02:38:46;;;;;;;;;2.00;1.75;;;;;16.78;68.97;101546.19;5037093;28;73549;-77
2022/10/27 02:41:12;;;;;;;;;5.25;1.75;;;;;16.78;69.06;101546.19;5055044;28;70804;-77
2022/10/27 02:43:37;;;;;;;;;2.25;1.50;;;;;16.77;69.35;101544.50;5055306;28;64313;-77
2022/10/27 02:46:02;;;;;;;;;1.00;1.00;;;;;16.77;68.82;101543.63;5054754;28;69412;-77
2022/10/27 02:48:28;;;;;;;;;1.00;1.00;;;;;16.75;69.28;101545.47;5054936;28;74599;-76
2022/10/27 02:50:53;;;;;;;;;2.50;1.75;;;;;16.75;68.85;101548.09;5054956;28;71243;-76
2022/10/27 02:53:18;;;;;;;;;4.75;2.00;;;;;16.74;69.09;101546.41;5055903;28;45280;-77
2022/10/27 02:55:44;;;;;;;;;2.00;2.00;;;;;16.73;69.07;101553.41;5054951;28;65791;-77
2022/10/27 02:58:09;;;;;;;;;1.25;1.00;;;;;16.72;69.26;101559.59;5054726;28;74574;-77
2022/10/27 03:00:34;;;;;;;;;3.00;2.00;;;;;16.73;69.06;101555.19;5036350;28;71356;-76
2022/10/27 03:03:01;;;;;;;;;2.00;2.00;;;;;16.74;69.28;101559.56;5055012;28;65076;-76
2022/10/27 03:05:27;;;;;;;;;2.00;1.50;;;;;16.74;69.23;101554.28;5055704;28;45510;-77
2022/10/27 03:07:52;;;;;;;;;3.25;2.00;;;;;16.76;68.73;101560.34;5054515;28;47356;-77
2022/10/27 03:10:17;;;;;;;;;3.75;1.25;;;;;16.72;69.02;101559.59;5054521;28;72160;-77
2022/10/27 03:12:45;;;;;;;;;1.00;1.00;;;;;16.72;69.19;101556.13;5054785;28;66637;-77
2022/10/27 03:15:10;;;;;;;;;4.00;2.00;;;;;16.72;69.33;101556.97;5037400;28;45410;-77
2022/10/27 03:17:35;;;;;;;;;3.25;1.75;;;;;16.72;69.08;101554.34;5054649;28;67337;-77
2022/10/27 03:20:01;;;;;;;;;2.50;1.25;;;;;16.72;68.85;101548.25;5036294;28;71295;-76
2022/10/27 03:22:26;;;;;;;;;1.25;1.25;;;;;16.71;68.93;101549.16;5055665;28;45387;-77
2022/10/27 03:24:51;;;;;;;;;1.75;1.75;;;;;16.72;68.94;101546.47;5054620;28;65793;-76
2022/10/27 03:27:17;;;;;;;;;2.25;1.50;;;;;16.73;68.81;101547.31;5054505;28;73180;-76
2022/10/27 03:29:42;;;;;;;;;2.25;2.25;;;;;16.71;69.13;101554.41;5055163;28;45291;-77
2022/10/27 03:32:07;;;;;;;;;2.00;2.00;;;;;16.69;69.06;101557.09;5054816;28;59687;-77
2022/10/27 03:34:33;;;;;;;;;2.75;2.25;;;;;16.64;68.63;101556.41;5036636;28;62785;-77
2022/10/27 03:36:58;;;;;;;;;2.25;1.50;;;;;16.60;69.03;101558.34;5055110;28;46331;-76
2022/10/27 03:39:23;;;;;;;;;3.25;3.00;;;;;16.58;69.25;101567.19;5054463;28;67063;-77
2022/10/27 03:41:49;;;;;;;;;2.00;2.00;;;;;16.54;69.17;101555.97;5054527;28;65718;-77
2022/10/27 03:44:14;;;;;;;;;4.00;2.00;;;;;16.54;69.05;101552.47;5053553;28;69534;-77
2022/10/27 03:46:39;;;;;;;;;3.00;1.00;;;;;16.49;68.87;101551.81;5054144;28;73356;-77
2022/10/27 03:49:04;;;;;;;;;3.50;2.50;;;;;16.46;68.84;101558.06;5055115;28;45303;-77
2022/10/27 03:51:30;;;;;;;;;2.00;2.00;;;;;16.45;69.48;101553.69;5054314;28;64071;-77
2022/10/27 03:53:56;;;;;;;;;1.00;1.00;;;;;16.41;69.76;101550.34;5054343;28;69231;-76
2022/10/27 03:56:22;;;;;;;;;2.00;2.00;;;;;16.37;69.67;101545.28;5055021;28;47349;-77
2022/10/27 03:58:47;;;;;;;;;2.00;1.50;;;;;16.35;69.46;101541.88;5053722;28;67535;-76
2022/10/27 04:01:12;;;;;;;;;3.25;1.00;;;;;16.33;69.41;101541.94;5054130;28;66515;-76
2022/10/27 04:03:38;;;;;;;;;2.25;2.00;;;;;16.32;69.16;101552.50;5036245;28;62164;-77
2022/10/27 04:06:03;;;;;;;;;4.00;2.00;;;;;16.28;69.99;101551.75;5036980;28;46069;-76
2022/10/27 04:08:28;;;;;;;;;1.00;1.00;;;;;16.29;69.44;101557.84;5039550;28;50981;-77
2022/10/27 04:10:54;;;;;;;;;4.75;1.75;;;;;16.30;69.94;101557.78;5057211;28;64082;-77
2022/10/27 04:13:19;;;;;;;;;4.25;2.00;;;;;16.29;69.66;101564.00;5057891;28;61954;-76
2022/10/27 04:15:44;;;;;;;;;4.00;2.75;;;;;16.28;69.44;101561.41;5039649;28;62820;-76
2022/10/27 04:18:10;;;;;;;;;2.75;2.75;;;;;16.27;69.76;101568.44;5058125;28;45387;-77
2022/10/27 04:20:35;;;;;;;;;0.50;0.50;;;;;16.28;69.49;101561.41;5040151;28;45272;-76
2022/10/27 04:23:01;;;;;;;;;2.00;2.00;;;;;16.29;69.51;101560.47;5039299;28;70055;-76
2022/10/27 04:25:27;;;;;;;;;2.50;1.00;;;;;16.28;69.51;101558.78;5057709;28;46120;-75
2022/10/27 04:28:03;;;;;;;;;5.00;3.00;;;;;16.28;70.05;101564.88;5058134;28;45429;-76
2022/10/27 04:30:28;;;;;;;;;4.00;1.00;;;;;16.29;69.31;101561.38;5058255;28;45346;-76
2022/10/27 04:32:54;;;;;;;;;1.75;1.75;;;;;16.29;69.86;101556.09;5040253;28;45630;-76
2022/10/27 04:35:19;;;;;;;;;5.00;2.00;;;;;16.26;69.65;101557.06;5057949;28;45323;-76
2022/10/27 04:37:44;;;;;;;;;2.25;2.25;;;;;16.25;69.75;101547.50;5056813;28;72869;-76
2022/10/27 04:40:10;;;;;;;;;3.00;2.00;;;;;16.24;69.95;101535.25;5056593;28;69405;-76
2022/10/27 04:42:35;;;;;;;;;4.00;2.50;;;;;16.24;69.61;101532.63;5058003;28;45345;-77
2022/10/27 04:45:01;;;;;;;;;1.50;1.50;;;;;16.24;69.53;101534.41;5056774;28;70586;-77
2022/10/27 04:47:26;;;;;;;;;2.00;2.00;;;;;16.23;69.58;101530.94;5056843;28;71882;-77
2022/10/27 04:49:51;;;;;;;;;2.50;1.25;;;;;16.21;69.80;101529.28;5039856;28;45354;-77
2022/10/27 04:52:17;;;;;;;;;2.50;1.75;;;;;16.21;69.65;101527.53;5056802;28;69425;-77
2022/10/27 04:54:42;;;;;;;;;2.00;2.00;;;;;16.20;69.96;101541.56;5038449;28;71110;-77
2022/10/27 04:57:08;;;;;;;;;2.75;2.00;;;;;16.18;69.80;101542.53;5039680;28;45398;-76
2022/10/27 04:59:33;;;;;;;;;3.00;2.75;;;;;16.18;69.95;101545.16;5056959;28;61502;-76
2022/10/27 05:01:58;;;;;;;;;2.00;1.00;;;;;16.17;69.62;101543.44;5057692;28;45341;-77
2022/10/27 05:04:23;;;;;;;;;2.75;2.00;;;;;16.16;69.77;101544.38;5057593;28;45930;-77
2022/10/27 05:06:49;;;;;;;;;3.00;3.00;;;;;16.15;69.87;101540.88;5038467;28;73242;-77
2022/10/27 05:09:14;;;;;;;;;3.00;3.00;;;;;16.14;69.91;101544.44;5056290;28;67568;-77
2022/10/27 05:11:39;;;;;;;;;2.50;2.50;;;;;16.13;70.14;101537.47;5056480;28;71078;-77
2022/10/27 05:14:05;;;;;;;;;2.75;2.75;;;;;16.16;69.74;101532.09;5055935;28;48094;-77
2022/10/27 05:16:30;;;;;;;;;2.00;2.00;;;;;16.19;70.22;101536.34;5056619;28;68657;-77
2022/10/27 05:18:55;;;;;;;;;2.00;2.00;;;;;16.18;69.46;101527.63;5056267;28;66889;-77
2022/10/27 05:21:21;;;;;;;;;2.00;2.00;;;;;16.17;69.79;101528.53;5056590;28;67437;-77
2022/10/27 05:23:46;;;;;;;;;3.00;2.00;;;;;16.18;69.77;101525.00;5056113;28;71645;-77
2022/10/27 05:26:11;;;;;;;;;4.75;2.00;;;;;16.18;69.64;101526.78;5057220;28;45228;-77
2022/10/27 05:28:37;;;;;;;;;3.00;3.00;;;;;16.19;69.85;101517.97;5056578;28;60898;-77
2022/10/27 05:31:02;;;;;;;;;3.25;2.00;;;;;16.21;70.01;101521.38;5056312;28;70118;-77
2022/10/27 05:33:28;;;;;;;;;4.00;2.00;;;;;16.21;69.53;101530.16;5038890;28;45326;-77
2022/10/27 05:35:53;;;;;;;;;5.25;2.25;;;;;16.21;69.75;101524.91;5056404;28;65167;-78
2022/10/27 05:38:18;;;;;;;;;3.50;2.00;;;;;16.21;70.11;101524.91;5056673;28;45418;-77
2022/10/27 05:40:44;;;;;;;;;2.25;2.25;;;;;16.23;69.85;101519.56;5056190;28;64139;-77
2022/10/27 05:43:09;;;;;;;;;2.00;2.00;;;;;16.22;69.90;101513.44;5056041;28;65406;-77
2022/10/27 05:45:35;;;;;;;;;5.00;2.00;;;;;16.24;69.65;101510.78;5056927;28;45398;-77
2022/10/27 05:48:03;;;;;;;;;2.00;2.00;;;;;16.28;70.13;101519.38;5057036;28;45417;-77
2022/10/27 05:50:28;;;;;;;;;5.50;3.25;;;;;16.30;69.88;101504.41;5056891;28;45614;-77
2022/10/27 05:52:53;;;;;;;;;3.50;2.00;;;;;16.31;69.66;101519.28;5055422;28;73787;-77
2022/10/27 05:55:19;;;;;;;;;2.00;2.00;;;;;16.33;69.94;101506.94;5055871;28;70136;-77
2022/10/27 05:57:52;;;;;;;;;4.00;2.25;;;;;16.36;69.84;101509.41;5056795;28;45447;-77
2022/10/27 06:00:17;;;;;;;;;4.00;2.75;;;;;16.39;69.72;101504.03;5056681;28;45629;-77
2022/10/27 06:02:43;;;;;;;;;9.25;3.75;;;;;16.42;69.67;101490.78;5055102;28;47366;-77
2022/10/27 06:05:08;;;;;;;;;4.75;4.75;;;;;16.43;69.83;101487.22;5055710;28;70782;-77
2022/10/27 06:07:33;;;;;;;;;4.75;3.00;;;;;16.43;69.58;101492.47;5055379;28;67697;-77
2022/10/27 06:09:59;;;;;;;;;3.00;3.00;;;;;16.43;69.66;101495.94;5056541;28;45410;-77
2022/10/27 06:12:24;;;;;;;;;5.00;3.75;;;;;16.44;69.75;101483.69;5037439;28;75016;-77
2022/10/27 06:14:49;;;;;;;;;5.00;3.00;;;;;16.45;69.48;101494.13;5055612;28;67302;-77
2022/10/27 06:17:14;;;;;;;;;6.00;2.75;;;;;16.44;69.31;101495.03;5055734;28;63213;-77
2022/10/27 06:19:40;;;;;;;;;3.25;3.00;;;;;16.47;69.50;101501.94;5055162;28;66401;-77
2022/10/27 06:22:05;;;;;;;;;3.00;2.50;;;;;16.51;69.61;101502.66;5054982;28;71245;-77
2022/10/27 06:24:30;;;;;;;;;5.00;4.00;;;;;16.55;69.47;101494.59;5056290;28;45236;-77
2022/10/27 06:26:56;;;;;;;;;6.00;3.75;;;;;16.58;69.35;101483.09;5055484;28;66881;-77
2022/10/27 06:29:22;;;;;;;;;4.00;3.75;;;;;16.58;69.23;101470.78;5055895;28;45486;-77
2022/10/27 06:31:48;;;;;;;;;4.00;3.25;;;;;16.59;69.05;101471.69;5054818;28;75512;-77
2022/10/27 06:34:13;;;;;;;;;4.75;2.50;;;;;16.60;69.80;101471.63;5054962;28;74774;-77
2022/10/27 06:36:38;;;;;;;;;4.25;2.75;;;;;16.60;69.14;101471.63;5055166;28;64515;-77
2022/10/27 06:39:03;;;;;;;;;6.75;3.50;;;;;16.61;69.39;101472.47;5055268;28;62535;-77
2022/10/27 06:41:29;;;;;;;;;3.00;2.00;;;;;16.62;69.06;101479.41;5054991;28;75431;-77
2022/10/27 06:43:54;;;;;;;;;5.00;3.00;;;;;16.62;69.40;101476.78;5036916;28;73257;-77
2022/10/27 06:46:19;;;;;;;;;2.75;2.75;;;;;16.64;69.13;101482.81;5055506;28;57615;-77
2022/10/27 06:48:45;;;;;;;;;3.00;2.75;;;;;16.64;68.90;101482.81;5055007;28;69657;-77
2022/10/27 06:51:10;;;;;;;;;5.25;4.00;;;;;16.66;69.13;101475.75;5055478;28;45909;-77
2022/10/27 06:53:35;;;;;;;;;5.00;3.00;;;;;16.66;68.85;101462.63;5055168;28;65416;-77
2022/10/27 06:56:01;;;;;;;;;5.00;2.50;;;;;16.65;68.78;101458.25;5055633;28;48739;-76
2022/10/27 06:58:26;;;;;;;;;5.00;2.00;;;;;16.65;68.57;101461.75;5055181;28;65197;-76
2022/10/27 07:00:52;;;;;;;;;6.00;4.00;;;;;16.64;68.92;101462.69;5036366;28;45951;-76
2022/10/27 07:03:17;;;;;;;;;2.00;1.25;;;;;16.69;68.70;101474.75;5053971;28;45471;-76
2022/10/27 07:05:42;;;;;;;;;3.75;3.50;;;;;16.71;68.36;101480.81;5054219;28;68105;-76
2022/10/27 07:08:07;;;;;;;;;5.00;4.00;;;;;16.75;68.74;101479.75;5055527;28;45291;-76
2022/10/27 07:10:33;;;;;;;;;3.00;3.00;;;;;16.76;68.56;101500.72;5055594;28;46065;-75
2022/10/27 07:13:00;;;;;;;;;6.00;4.00;;;;;16.77;68.97;101499.81;5054382;28;61801;-75
2022/10/27 07:15:31;;;;;;;;;6.75;4.00;;;;;16.81;68.84;101514.53;5037347;28;45487;-76
2022/10/27 07:17:58;;;;;;;;;4.75;3.00;;;;;16.87;68.75;101502.06;5037739;28;45328;-76
2022/10/27 07:20:23;;;;;;;;;4.00;3.75;;;;;16.94;68.93;101514.03;5036570;28;45953;-76
2022/10/27 07:22:49;;;;;;;;;4.50;3.50;;;;;17.00;68.23;101527.75;5037375;28;45403;-76
2022/10/27 07:25:14;;;;;;;;;3.00;3.00;;;;;17.07;68.71;101525.72;5055639;28;45828;-76
2022/10/27 07:27:39;;;;;;;;;4.00;4.00;;;;;17.19;68.18;101537.47;5036752;28;61674;-77
2022/10/27 07:30:05;;;;;;;;;5.50;3.75;;;;;17.32;67.95;101548.31;5054121;28;74185;-76
2022/10/27 07:32:31;;;;;;;;;5.75;4.00;;;;;17.41;67.86;101561.91;5055414;28;45231;-77
2022/10/27 07:34:56;;;;;;;;;3.75;3.50;;;;;17.52;67.66;101555.34;5054750;28;45380;-77
2022/10/27 07:37:21;;;;;;;;;4.00;3.00;;;;;17.58;67.33;101549.78;5054281;28;45514;-76
2022/10/27 07:39:48;;;;;;;;;2.75;2.00;;;;;17.63;67.18;101552.22;5054211;28;69094;-76
2022/10/27 07:42:14;;;;;;;;;7.00;4.25;;;;;17.68;67.37;101556.34;5055572;28;45296;-76
2022/10/27 07:44:40;;;;;;;;;5.75;4.00;;;;;17.75;66.90;101556.91;5058575;28;45374;-76
2022/10/27 07:47:05;;;;;;;;;4.00;3.75;;;;;17.81;66.77;101546.09;5058874;28;45515;-76
2022/10/27 07:49:30;;;;;;;;;5.25;3.50;;;;;17.84;66.84;101535.41;5057771;28;47579;-76
2022/10/27 07:51:56;;;;;;;;;5.25;4.00;;;;;17.87;66.24;101534.47;5057997;28;53336;-77
2022/10/27 07:54:21;;;;;;;;;7.00;4.00;;;;;17.90;66.51;101529.88;5057599;28;67902;-77
2022/10/27 07:56:48;;;;;;;;;6.75;5.00;;;;;17.93;66.32;101534.16;5040665;28;45374;-77
2022/10/27 07:59:13;;;;;;;;;7.00;4.00;;;;;17.94;65.69;101565.72;5058376;28;46394;-76
2022/10/27 08:01:38;;;;;;;;;3.50;3.00;;;;;17.93;65.53;101563.16;5056813;28;71640;-77
2022/10/27 08:04:04;;;;;;;;;6.00;4.25;;;;;17.97;66.27;101559.44;5058032;28;50274;-77
2022/10/27 08:06:29;;;;;;;;;7.50;4.25;;;;;18.00;66.14;101548.75;5056926;28;45506;-77
2022/10/27 08:08:55;;;;;;;;;8.50;5.25;;;;;18.01;65.90;101542.56;5067773;28;62038;-77
2022/10/27 08:11:22;;;;;;;;;3.75;3.75;;;;;18.05;65.93;101549.38;5050875;28;45588;-76
2022/10/27 08:13:47;;;;;;;;;3.75;3.75;;;;;18.08;65.97;101543.97;5068036;28;45327;-77
2022/10/27 08:16:13;;;;;;;;;5.50;4.25;;;;;18.10;65.52;101544.75;5039815;28;45386;-76
2022/10/27 08:18:38;;;;;;;;;5.00;3.00;;;;;18.14;66.02;101548.09;5056450;28;72757;-75
2022/10/27 08:21:04;;;;;;;;;7.25;4.00;;;;;18.15;65.34;101552.44;5040003;28;45268;-76
2022/10/27 08:23:30;;;;;;;;;7.00;4.75;;;;;18.18;65.56;101553.16;5057419;28;45428;-75
2022/10/27 08:25:55;;;;;;;;;4.50;4.25;;;;;18.20;65.41;101555.69;5057685;28;45593;-75
2022/10/27 08:28:20;;;;;;;;;2.25;2.25;;;;;18.21;65.65;101551.31;5056788;28;75332;-75
2022/10/27 08:30:46;;;;;;;;;5.75;5.00;;;;;18.18;65.08;101561.06;5058143;28;45474;-75
2022/10/27 08:33:12;;;;;;;;;5.50;4.00;;;;;18.16;64.76;101555.03;5057511;28;45467;-75
2022/10/27 08:35:38;;;;;;;;;5.75;4.00;;;;;18.18;65.09;101563.69;5036189;28;46336;-75
2022/10/27 08:38:12;;;;;;;;;4.25;3.75;;;;;18.23;65.21;101560.81;5055410;28;46218;-77
2022/10/27 08:40:52;;;;;;;;;5.25;4.75;;;;;18.28;65.12;101566.75;5057136;28;45437;-77
2022/10/27 08:43:39;;;;;;;;;12.00;4.50;;;;;18.31;64.70;101577.16;5057839;28;45384;-77
2022/10/27 08:46:13;;;;;;;;;5.50;4.75;;;;;18.35;64.30;101586.59;5057914;28;45489;-77
2022/10/27 08:48:39;;;;;;;;;5.50;4.25;;;;;18.36;64.66;101577.75;5039501;28;46197;-77
2022/10/27 08:51:17;;;;;;;;;4.50;4.25;;;;;18.38;64.60;101590.88;5057592;28;45711;-77
2022/10/27 08:53:45;;;;;;;;;8.25;4.75;;;;;18.40;64.29;101596.91;5057413;28;45438;-77
2022/10/27 08:56:10;;;;;;;;;5.00;5.00;;;;;18.41;64.45;101601.28;5057857;28;45435;-77
2022/10/27 08:58:44;;;;;;;;;6.75;5.50;;;;;18.44;64.08;101593.19;5057482;28;48559;-76
2022/10/27 09:01:34;;;;;;;;;5.25;4.00;;;;;18.52;64.44;101588.41;5039402;28;45382;-77
2022/10/27 09:04:05;;;;;;;;;6.75;3.00;;;;;18.63;63.70;101593.19;5057634;28;45502;-77
2022/10/27 09:06:58;;;;;;;;;6.00;4.25;;;;;18.75;63.46;101599.63;5057750;28;45306;-77
2022/10/27 09:09:42;;;;;;;;;8.25;4.25;;;;;18.84;62.92;101598.34;5057428;28;46524;-76
2022/10/27 09:12:32;;;;;;;;;6.25;5.00;;;;;18.87;62.85;101585.84;5039424;28;45288;-77
2022/10/27 09:15:34;;;;;;;;;5.50;4.25;;;;;18.93;63.10;101582.91;5057411;28;45378;-76
2022/10/27 09:18:19;;;;;;;;;6.00;5.00;;;;;19.04;62.59;101585.00;5057402;28;45350;-77
2022/10/27 09:20:57;;;;;;;;;5.50;4.50;;;;;19.11;62.51;101578.47;5039112;28;46397;-77
2022/10/27 09:23:27;;;;;;;;;2.50;2.50;;;;;19.18;61.88;101592.19;5057311;28;45792;-77
2022/10/27 09:25:53;;;;;;;;;5.00;4.50;;;;;19.24;62.38;101594.53;5057537;28;45361;-77
2022/10/27 09:28:26;;;;;;;;;8.75;4.25;;;;;19.31;61.90;101598.53;5039221;28;45434;-76
2022/10/27 09:30:52;;;;;;;;;6.00;6.00;;;;;19.39;62.18;101592.88;5038707;28;46032;-77
2022/10/27 09:33:27;;;;;;;;;6.00;5.00;;;;;19.49;62.00;101607.28;5038827;28;51431;-77
2022/10/27 09:35:53;;;;;;;;;6.00;3.50;;;;;19.54;61.78;101613.19;5037191;28;45367;-77
2022/10/27 09:38:22;;;;;;;;;7.25;5.00;;;;;19.62;61.46;101612.78;5036904;28;45340;-77
2022/10/27 09:40:47;;;;;;;;;12.00;4.00;;;;;19.70;61.27;101610.56;5036665;28;46486;-77
2022/10/27 09:43:12;;;;;;;;;5.50;4.00;;;;;19.75;61.47;101607.72;5038583;28;68483;-77
2022/10/27 09:45:39;;;;;;;;;9.50;4.00;;;;;19.83;61.63;101607.31;5037872;28;66093;-77
2022/10/27 09:48:17;;;;;;;;;6.50;4.00;;;;;19.92;61.34;101610.31;5056989;28;45438;-77
2022/10/27 09:51:03;;;;;;;;;5.50;5.00;;;;;20.04;60.99;101603.50;5038621;28;46417;-77
2022/10/27 09:53:35;;;;;;;;;5.50;4.50;;;;;20.08;60.45;101594.47;5038752;28;45793;-76
2022/10/27 09:56:01;;;;;;;;;5.25;5.25;;;;;20.18;60.67;101586.03;5056865;28;45424;-77
2022/10/27 09:58:26;;;;;;;;;7.00;4.25;;;;;20.23;60.36;101568.97;5037897;28;66698;-77
2022/10/27 10:00:59;;;;;;;;;6.00;5.00;;;;;20.29;60.11;101581.84;5055777;28;62154;-76
2022/10/27 10:03:25;;;;;;;;;6.00;4.50;;;;;20.30;59.76;101570.34;5056641;28;45402;-77
2022/10/27 10:06:05;;;;;;;;;11.50;6.00;;;;;20.36;59.68;101566.50;5055892;28;45355;-77
2022/10/27 10:08:35;;;;;;;;;6.25;4.50;;;;;20.46;59.92;101572.09;5038780;28;45566;-77
2022/10/27 10:11:05;;;;;;;;;5.25;5.25;;;;;20.56;59.53;101575.94;5056481;28;47018;-77
2022/10/27 10:13:31;;;;;;;;;4.75;4.75;;;;;20.69;59.84;101595.47;5056236;28;45659;-77
2022/10/27 10:16:09;;;;;;;;;7.75;4.25;;;;;20.80;58.91;101596.63;5038657;28;45338;-75
2022/10/27 10:18:34;;;;;;;;;7.50;5.50;;;;;20.88;59.41;101591.75;5056166;28;45460;-76
2022/10/27 10:21:02;;;;;;;;;9.00;6.00;;;;;20.99;59.76;101585.81;5038320;28;46318;-76
2022/10/27 10:23:29;;;;;;;;;10.50;5.25;;;;;21.08;59.79;101587.94;5038332;28;45368;-76
2022/10/27 10:25:59;;;;;;;;;6.00;6.00;;;;;21.23;59.04;101588.81;5038622;28;45413;-76
2022/10/27 10:28:31;;;;;;;;;9.50;6.25;;;;;21.35;58.43;101597.78;5037827;28;45595;-76
2022/10/27 10:30:57;;;;;;;;;5.00;4.50;;;;;21.41;58.28;101598.28;5056057;28;47158;-75
2022/10/27 10:33:25;;;;;;;;;6.50;6.50;;;;;21.46;57.55;101604.16;5054960;28;45864;-76
2022/10/27 10:35:51;;;;;;;;;10.00;10.00;;;;;21.48;57.73;101596.13;5035259;28;45584;-76
2022/10/27 10:38:22;;;;;;;;;22.00;18.00;;;;;21.56;57.77;101604.47;5037916;28;45304;-76
2022/10/27 10:41:07;;;;;;;;;10.75;9.00;;;;;21.68;57.82;101600.19;5055518;28;46277;-76
2022/10/27 10:43:33;;;;;;;;;7.00;6.00;;;;;21.85;57.55;101609.72;5037441;28;45464;-76
2022/10/27 10:45:58;;;;;;;;;5.75;5.00;;;;;21.94;57.09;101605.66;5040988;28;45812;-76
2022/10/27 10:48:26;;;;;;;;;8.00;6.00;;;;;22.06;56.80;101601.38;5072349;28;45351;-77
2022/10/27 10:50:52;;;;;;;;;6.00;6.00;;;;;22.18;56.63;101592.63;5071358;28;46966;-77
2022/10/27 10:53:22;;;;;;;;;9.75;6.50;;;;;22.27;56.34;101592.09;5037567;28;45557;-77
2022/10/27 10:55:47;;;;;;;;;11.75;8.00;;;;;22.37;56.09;101587.88;5064673;28;45301;-76
2022/10/27 10:58:14;;;;;;;;;11.00;5.75;;;;;22.44;55.81;101595.44;5057511;28;47259;-76
2022/10/27 11:00:51;;;;;;;;;6.00;6.00;;;;;22.42;55.71;101600.84;5043572;28;45501;-77
2022/10/27 11:03:19;;;;;;;;;7.00;7.00;;;;;22.38;55.38;101612.56;5037433;28;45911;-76
2022/10/27 11:05:55;;;;;;;;;6.25;5.00;;;;;22.33;55.71;101607.59;5055089;28;63821;-76
2022/10/27 11:08:28;;;;;;;;;6.75;6.75;;;;;22.28;55.78;101577.84;5055057;28;45296;-76
2022/10/27 11:10:55;;;;;;;;;7.00;5.00;;;;;22.31;55.84;101588.28;5036385;28;45366;-76
2022/10/27 11:13:31;;;;;;;;;17.00;12.00;;;;;22.40;56.05;101585.03;5036007;28;73156;-76
2022/10/27 11:16:00;;;;;;;;;15.75;12.75;;;;;22.52;56.10;101586.00;5056819;28;45374;-76
2022/10/27 11:18:33;;;;;;;;;12.25;8.25;;;;;22.89;55.75;101574.75;5043879;28;45502;-75
2022/10/27 11:21:07;;;;;;;;;6.00;6.00;;;;;23.59;55.23;101577.00;5062102;28;46317;-76
2022/10/27 11:23:55;;;;;;;;;8.75;7.00;;;;;25.01;53.40;101570.16;5044272;28;45342;-75
2022/10/27 11:26:30;;;;;;;;;6.25;4.75;;;;;26.61;51.20;101567.22;5043822;28;45434;-76
2022/10/27 11:29:07;;;;;;;;;7.50;7.50;;;;;28.30;48.39;101565.00;5043903;28;45410;-76